Hovedside
METAR-TAF:

METAR-TAF

Lufthavner :

Bahrain, Bahrain

breddegrad: 26-16N, lengdegrad: 050-39E, høyde over havet: 2 m

Gjeldene værobservasjon

Denne rapporten ble laget for 29 minutter siden, klokken 18:00 UTC
Vind 9 kt fra Nord-nordvest
Temperatur 25°C
Luftfuktighet 61%
Trykk 1012 hPa
Sikt 10 km eller mer
ingen skyer under 1500 m og ingen bygeskyer

METAR: OBBI 241800Z 34009KT CAVOK 25/17 Q1012 NOSIG

Tid: 21:29 (18:29 UTC)

Varsel

Denne rapporten ble laget for 2 timer og 9 minutter siden, klokken 16:20 UTC
Varsel gyldig fra 24. klokken 18 UTC til 26. klokken 00 UTC
Vind 12 kt fra Nord
Sikt 10 km eller mer
ingen skyer under 1500 m og ingen bygeskyer
Sannsynlighet 30% :
Midlertidig
fra 24. klokken 21 UTC til 25. klokken 12 UTC
Vind 20 kt fra Nord-nordvest med vindkast opp mot 35 kt
Sikt: 4000 m
Få skyer i en høyde av 4000 ft, Bygeskyer.
torden, lett regn

TAF: OBBI 241620Z 2418/2600 35012KT CAVOK PROB30 TEMPO 2421/2512 33020G35KT 4000 -TSRA FEW040CB

Værobservasjoner og værvarsel for over 4000 flyplasser (METAR- og TAF-rapporter).

Tilgjengelige stasjoner er representert av de røde og gule prikkene på kartet.

Hold musepekeren over prikken for å se navnet på stasjonen.

Klikk så for å se værobservasjoner og -varsler.

For å forandre kartet kan du klikke på den grønne knappen med svart kryss for å zoome inn, på den grønne knappen med strek for å zoome ut, eller på de grønne pilene for å se tilstøtende kart.


METAR-TAF: